sensor_id;sensor_type;location;lat;lon;timestamp;P1;durP1;ratioP1;P2;durP2;ratioP2
21729;SDS011;11027;51.030;13.812;2023-02-03T00:00:22;8.88;;;3.95;;
21729;SDS011;11027;51.030;13.812;2023-02-03T00:02:48;11.35;;;4.90;;
21729;SDS011;11027;51.030;13.812;2023-02-03T00:05:13;10.02;;;4.20;;
21729;SDS011;11027;51.030;13.812;2023-02-03T00:07:38;8.35;;;4.00;;
21729;SDS011;11027;51.030;13.812;2023-02-03T00:10:04;9.70;;;3.72;;
21729;SDS011;11027;51.030;13.812;2023-02-03T00:12:30;12.25;;;3.80;;
21729;SDS011;11027;51.030;13.812;2023-02-03T00:14:56;13.15;;;3.70;;
21729;SDS011;11027;51.030;13.812;2023-02-03T00:17:21;7.53;;;3.13;;
21729;SDS011;11027;51.030;13.812;2023-02-03T00:19:46;8.30;;;3.28;;
21729;SDS011;11027;51.030;13.812;2023-02-03T00:22:12;7.28;;;3.13;;
21729;SDS011;11027;51.030;13.812;2023-02-03T00:24:37;11.38;;;3.53;;
21729;SDS011;11027;51.030;13.812;2023-02-03T00:27:02;14.20;;;3.65;;
21729;SDS011;11027;51.030;13.812;2023-02-03T00:29:28;12.85;;;3.50;;
21729;SDS011;11027;51.030;13.812;2023-02-03T00:31:53;12.55;;;3.85;;
21729;SDS011;11027;51.030;13.812;2023-02-03T00:34:18;8.02;;;3.58;;
21729;SDS011;11027;51.030;13.812;2023-02-03T00:36:44;11.45;;;3.83;;
21729;SDS011;11027;51.030;13.812;2023-02-03T00:39:12;10.60;;;3.92;;
21729;SDS011;11027;51.030;13.812;2023-02-03T00:41:37;7.47;;;3.72;;
21729;SDS011;11027;51.030;13.812;2023-02-03T00:44:02;9.15;;;3.80;;
21729;SDS011;11027;51.030;13.812;2023-02-03T00:46:28;10.35;;;3.53;;
21729;SDS011;11027;51.030;13.812;2023-02-03T00:48:53;8.25;;;4.03;;
21729;SDS011;11027;51.030;13.812;2023-02-03T00:51:18;8.68;;;4.20;;
21729;SDS011;11027;51.030;13.812;2023-02-03T00:53:43;9.27;;;3.75;;
21729;SDS011;11027;51.030;13.812;2023-02-03T00:56:09;8.70;;;4.30;;
21729;SDS011;11027;51.030;13.812;2023-02-03T00:58:37;8.90;;;4.20;;
21729;SDS011;11027;51.030;13.812;2023-02-03T01:01:05;11.60;;;4.53;;
21729;SDS011;11027;51.030;13.812;2023-02-03T01:03:31;9.90;;;4.03;;
21729;SDS011;11027;51.030;13.812;2023-02-03T01:06:06;8.35;;;3.85;;
21729;SDS011;11027;51.030;13.812;2023-02-03T01:08:42;8.45;;;3.95;;
21729;SDS011;11027;51.030;13.812;2023-02-03T01:11:08;10.45;;;4.15;;
21729;SDS011;11027;51.030;13.812;2023-02-03T01:13:35;8.77;;;4.57;;
21729;SDS011;11027;51.030;13.812;2023-02-03T01:16:02;7.72;;;4.00;;
21729;SDS011;11027;51.030;13.812;2023-02-03T01:18:27;12.77;;;4.57;;
21729;SDS011;11027;51.030;13.812;2023-02-03T01:20:53;11.00;;;4.30;;
21729;SDS011;11027;51.030;13.812;2023-02-03T01:23:18;8.15;;;3.80;;
21729;SDS011;11027;51.030;13.812;2023-02-03T01:25:43;7.97;;;2.80;;
21729;SDS011;11027;51.030;13.812;2023-02-03T01:28:09;11.55;;;3.00;;
21729;SDS011;11027;51.030;13.812;2023-02-03T01:30:34;6.93;;;3.40;;
21729;SDS011;11027;51.030;13.812;2023-02-03T01:32:59;10.95;;;2.90;;
21729;SDS011;11027;51.030;13.812;2023-02-03T01:35:25;9.27;;;3.03;;
21729;SDS011;11027;51.030;13.812;2023-02-03T01:37:50;9.65;;;2.83;;
21729;SDS011;11027;51.030;13.812;2023-02-03T01:40:15;11.60;;;3.33;;
21729;SDS011;11027;51.030;13.812;2023-02-03T01:42:41;11.73;;;3.55;;
21729;SDS011;11027;51.030;13.812;2023-02-03T01:45:07;7.72;;;3.20;;
21729;SDS011;11027;51.030;13.812;2023-02-03T01:47:35;7.72;;;3.05;;
21729;SDS011;11027;51.030;13.812;2023-02-03T01:50:17;7.97;;;3.53;;
21729;SDS011;11027;51.030;13.812;2023-02-03T01:52:47;9.48;;;3.17;;
21729;SDS011;11027;51.030;13.812;2023-02-03T01:55:18;8.88;;;2.88;;
21729;SDS011;11027;51.030;13.812;2023-02-03T01:57:57;8.68;;;3.10;;
21729;SDS011;11027;51.030;13.812;2023-02-03T02:00:27;6.13;;;2.45;;
21729;SDS011;11027;51.030;13.812;2023-02-03T02:02:53;6.93;;;2.30;;
21729;SDS011;11027;51.030;13.812;2023-02-03T02:05:24;7.93;;;2.42;;
21729;SDS011;11027;51.030;13.812;2023-02-03T02:08:02;6.35;;;2.10;;
21729;SDS011;11027;51.030;13.812;2023-02-03T02:10:29;5.40;;;2.20;;
21729;SDS011;11027;51.030;13.812;2023-02-03T02:12:56;10.30;;;2.60;;
21729;SDS011;11027;51.030;13.812;2023-02-03T02:15:22;8.30;;;2.60;;
21729;SDS011;11027;51.030;13.812;2023-02-03T02:23:36;7.22;;;3.50;;
21729;SDS011;11027;51.030;13.812;2023-02-03T02:29:02;11.13;;;3.75;;
21729;SDS011;11027;51.030;13.812;2023-02-03T02:37:21;6.68;;;2.80;;
21729;SDS011;11027;51.030;13.812;2023-02-03T02:40:08;9.50;;;3.63;;
21729;SDS011;11027;51.030;13.812;2023-02-03T02:42:36;8.55;;;3.30;;
21729;SDS011;11027;51.030;13.812;2023-02-03T02:45:16;6.70;;;3.10;;
21729;SDS011;11027;51.030;13.812;2023-02-03T02:47:50;6.78;;;2.42;;
21729;SDS011;11027;51.030;13.812;2023-02-03T02:50:21;6.45;;;2.20;;
21729;SDS011;11027;51.030;13.812;2023-02-03T02:52:49;7.70;;;1.67;;
21729;SDS011;11027;51.030;13.812;2023-02-03T02:55:18;6.57;;;1.98;;
21729;SDS011;11027;51.030;13.812;2023-02-03T02:57:51;7.30;;;2.30;;
21729;SDS011;11027;51.030;13.812;2023-02-03T03:00:19;4.97;;;1.67;;
21729;SDS011;11027;51.030;13.812;2023-02-03T03:02:44;4.20;;;1.90;;
21729;SDS011;11027;51.030;13.812;2023-02-03T03:05:09;5.63;;;2.22;;
21729;SDS011;11027;51.030;13.812;2023-02-03T03:07:44;5.10;;;1.90;;
21729;SDS011;11027;51.030;13.812;2023-02-03T03:10:15;5.40;;;2.00;;
21729;SDS011;11027;51.030;13.812;2023-02-03T03:12:48;5.00;;;1.80;;
21729;SDS011;11027;51.030;13.812;2023-02-03T03:15:19;4.95;;;1.70;;
21729;SDS011;11027;51.030;13.812;2023-02-03T03:17:52;4.63;;;1.60;;
21729;SDS011;11027;51.030;13.812;2023-02-03T03:20:24;4.30;;;1.80;;
21729;SDS011;11027;51.030;13.812;2023-02-03T03:23:26;7.53;;;2.38;;
21729;SDS011;11027;51.030;13.812;2023-02-03T03:25:57;4.38;;;1.60;;
21729;SDS011;11027;51.030;13.812;2023-02-03T03:28:29;3.95;;;1.85;;
21729;SDS011;11027;51.030;13.812;2023-02-03T03:31:02;4.63;;;2.17;;
21729;SDS011;11027;51.030;13.812;2023-02-03T03:33:27;5.35;;;2.20;;
21729;SDS011;11027;51.030;13.812;2023-02-03T03:39:04;3.25;;;1.58;;
21729;SDS011;11027;51.030;13.812;2023-02-03T03:41:41;2.42;;;1.48;;
21729;SDS011;11027;51.030;13.812;2023-02-03T03:44:08;3.28;;;1.65;;
21729;SDS011;11027;51.030;13.812;2023-02-03T03:46:39;4.30;;;1.70;;
21729;SDS011;11027;51.030;13.812;2023-02-03T03:49:12;3.47;;;1.85;;
21729;SDS011;11027;51.030;13.812;2023-02-03T03:51:46;3.35;;;1.45;;
21729;SDS011;11027;51.030;13.812;2023-02-03T03:54:17;6.15;;;1.70;;
21729;SDS011;11027;51.030;13.812;2023-02-03T03:56:52;3.83;;;1.55;;
21729;SDS011;11027;51.030;13.812;2023-02-03T03:59:24;4.15;;;2.00;;
21729;SDS011;11027;51.030;13.812;2023-02-03T04:01:52;3.33;;;2.10;;
21729;SDS011;11027;51.030;13.812;2023-02-03T04:04:19;3.33;;;1.98;;
21729;SDS011;11027;51.030;13.812;2023-02-03T04:06:46;2.88;;;1.90;;
21729;SDS011;11027;51.030;13.812;2023-02-03T04:09:11;4.75;;;1.50;;
21729;SDS011;11027;51.030;13.812;2023-02-03T04:11:36;5.18;;;2.03;;
21729;SDS011;11027;51.030;13.812;2023-02-03T04:14:20;4.78;;;2.10;;
21729;SDS011;11027;51.030;13.812;2023-02-03T04:16:45;8.07;;;2.20;;
21729;SDS011;11027;51.030;13.812;2023-02-03T04:19:10;5.35;;;2.20;;
21729;SDS011;11027;51.030;13.812;2023-02-03T04:21:36;7.70;;;2.55;;
21729;SDS011;11027;51.030;13.812;2023-02-03T04:24:01;3.50;;;2.10;;
21729;SDS011;11027;51.030;13.812;2023-02-03T04:26:26;3.60;;;2.30;;
21729;SDS011;11027;51.030;13.812;2023-02-03T04:28:51;5.78;;;2.50;;
21729;SDS011;11027;51.030;13.812;2023-02-03T04:31:17;5.28;;;3.10;;
21729;SDS011;11027;51.030;13.812;2023-02-03T04:33:42;5.55;;;3.55;;
21729;SDS011;11027;51.030;13.812;2023-02-03T04:36:07;4.78;;;3.72;;
21729;SDS011;11027;51.030;13.812;2023-02-03T04:38:33;4.45;;;3.85;;
21729;SDS011;11027;51.030;13.812;2023-02-03T04:40:58;5.90;;;4.15;;
21729;SDS011;11027;51.030;13.812;2023-02-03T04:43:23;5.35;;;4.32;;
21729;SDS011;11027;51.030;13.812;2023-02-03T04:45:49;6.00;;;4.07;;
21729;SDS011;11027;51.030;13.812;2023-02-03T04:48:14;4.93;;;4.22;;
21729;SDS011;11027;51.030;13.812;2023-02-03T04:50:39;4.82;;;4.18;;
21729;SDS011;11027;51.030;13.812;2023-02-03T04:53:05;4.47;;;4.07;;
21729;SDS011;11027;51.030;13.812;2023-02-03T04:55:30;5.93;;;4.72;;
21729;SDS011;11027;51.030;13.812;2023-02-03T04:57:56;5.13;;;4.63;;
21729;SDS011;11027;51.030;13.812;2023-02-03T05:00:21;5.53;;;4.75;;
21729;SDS011;11027;51.030;13.812;2023-02-03T05:02:47;5.55;;;5.03;;
21729;SDS011;11027;51.030;13.812;2023-02-03T05:05:12;5.90;;;4.97;;
21729;SDS011;11027;51.030;13.812;2023-02-03T05:07:37;5.43;;;4.03;;
21729;SDS011;11027;51.030;13.812;2023-02-03T05:10:03;7.30;;;4.93;;
21729;SDS011;11027;51.030;13.812;2023-02-03T05:12:28;6.88;;;4.78;;
21729;SDS011;11027;51.030;13.812;2023-02-03T05:14:53;5.10;;;4.60;;
21729;SDS011;11027;51.030;13.812;2023-02-03T05:17:18;5.82;;;4.97;;
21729;SDS011;11027;51.030;13.812;2023-02-03T05:19:44;5.78;;;4.57;;
21729;SDS011;11027;51.030;13.812;2023-02-03T05:22:09;5.70;;;5.15;;
21729;SDS011;11027;51.030;13.812;2023-02-03T05:24:34;5.53;;;4.30;;
21729;SDS011;11027;51.030;13.812;2023-02-03T05:26:59;7.53;;;4.93;;
21729;SDS011;11027;51.030;13.812;2023-02-03T05:29:25;5.80;;;4.97;;
21729;SDS011;11027;51.030;13.812;2023-02-03T05:31:50;7.90;;;5.70;;
21729;SDS011;11027;51.030;13.812;2023-02-03T05:34:15;7.00;;;5.13;;
21729;SDS011;11027;51.030;13.812;2023-02-03T05:36:41;6.45;;;5.40;;
21729;SDS011;11027;51.030;13.812;2023-02-03T05:39:06;7.55;;;5.50;;
21729;SDS011;11027;51.030;13.812;2023-02-03T05:41:31;6.50;;;5.68;;
21729;SDS011;11027;51.030;13.812;2023-02-03T05:44:15;6.55;;;5.07;;
21729;SDS011;11027;51.030;13.812;2023-02-03T05:46:40;6.80;;;4.70;;
21729;SDS011;11027;51.030;13.812;2023-02-03T05:49:05;6.07;;;4.70;;
21729;SDS011;11027;51.030;13.812;2023-02-03T05:51:31;9.20;;;5.07;;
21729;SDS011;11027;51.030;13.812;2023-02-03T05:53:56;5.90;;;5.13;;
21729;SDS011;11027;51.030;13.812;2023-02-03T05:56:21;5.95;;;5.03;;
21729;SDS011;11027;51.030;13.812;2023-02-03T05:58:46;5.40;;;4.88;;
21729;SDS011;11027;51.030;13.812;2023-02-03T06:01:12;8.57;;;5.25;;
21729;SDS011;11027;51.030;13.812;2023-02-03T06:03:37;7.90;;;5.43;;
21729;SDS011;11027;51.030;13.812;2023-02-03T06:06:02;5.78;;;5.10;;
21729;SDS011;11027;51.030;13.812;2023-02-03T06:08:27;5.80;;;5.20;;
21729;SDS011;11027;51.030;13.812;2023-02-03T06:10:56;5.88;;;5.28;;
21729;SDS011;11027;51.030;13.812;2023-02-03T06:13:25;6.88;;;5.10;;
21729;SDS011;11027;51.030;13.812;2023-02-03T06:15:50;5.10;;;4.60;;
21729;SDS011;11027;51.030;13.812;2023-02-03T06:18:15;7.93;;;5.38;;
21729;SDS011;11027;51.030;13.812;2023-02-03T06:20:41;6.32;;;5.20;;
21729;SDS011;11027;51.030;13.812;2023-02-03T06:23:06;6.32;;;5.35;;
21729;SDS011;11027;51.030;13.812;2023-02-03T06:25:31;6.50;;;5.25;;
21729;SDS011;11027;51.030;13.812;2023-02-03T06:27:57;6.75;;;5.30;;
21729;SDS011;11027;51.030;13.812;2023-02-03T06:30:23;7.35;;;5.10;;
21729;SDS011;11027;51.030;13.812;2023-02-03T06:32:48;5.50;;;4.50;;
21729;SDS011;11027;51.030;13.812;2023-02-03T06:35:14;4.88;;;4.38;;
21729;SDS011;11027;51.030;13.812;2023-02-03T06:37:39;6.68;;;4.85;;
21729;SDS011;11027;51.030;13.812;2023-02-03T06:40:05;5.55;;;4.05;;
21729;SDS011;11027;51.030;13.812;2023-02-03T06:42:31;6.05;;;4.40;;
21729;SDS011;11027;51.030;13.812;2023-02-03T06:44:56;5.07;;;4.03;;
21729;SDS011;11027;51.030;13.812;2023-02-03T06:47:22;4.97;;;4.45;;
21729;SDS011;11027;51.030;13.812;2023-02-03T06:49:47;6.97;;;4.57;;
21729;SDS011;11027;51.030;13.812;2023-02-03T06:52:13;4.95;;;4.32;;
21729;SDS011;11027;51.030;13.812;2023-02-03T06:54:39;5.40;;;4.22;;
21729;SDS011;11027;51.030;13.812;2023-02-03T06:57:05;5.32;;;4.80;;
21729;SDS011;11027;51.030;13.812;2023-02-03T06:59:30;8.38;;;5.10;;
21729;SDS011;11027;51.030;13.812;2023-02-03T07:01:55;8.05;;;4.70;;
21729;SDS011;11027;51.030;13.812;2023-02-03T07:04:21;4.45;;;4.05;;
21729;SDS011;11027;51.030;13.812;2023-02-03T07:06:46;4.97;;;4.40;;
21729;SDS011;11027;51.030;13.812;2023-02-03T07:09:11;7.32;;;4.45;;
21729;SDS011;11027;51.030;13.812;2023-02-03T07:11:37;4.72;;;4.18;;
21729;SDS011;11027;51.030;13.812;2023-02-03T07:14:02;5.13;;;3.65;;
21729;SDS011;11027;51.030;13.812;2023-02-03T07:16:27;7.18;;;4.10;;
21729;SDS011;11027;51.030;13.812;2023-02-03T07:18:53;5.15;;;4.10;;
21729;SDS011;11027;51.030;13.812;2023-02-03T07:21:18;5.10;;;3.80;;
21729;SDS011;11027;51.030;13.812;2023-02-03T07:23:47;6.18;;;3.83;;
21729;SDS011;11027;51.030;13.812;2023-02-03T07:26:13;4.25;;;3.58;;
21729;SDS011;11027;51.030;13.812;2023-02-03T07:28:38;8.48;;;3.95;;
21729;SDS011;11027;51.030;13.812;2023-02-03T07:31:04;4.25;;;3.75;;
21729;SDS011;11027;51.030;13.812;2023-02-03T07:33:29;5.22;;;3.22;;
21729;SDS011;11027;51.030;13.812;2023-02-03T07:35:56;5.55;;;3.90;;
21729;SDS011;11027;51.030;13.812;2023-02-03T07:38:23;4.05;;;3.38;;
21729;SDS011;11027;51.030;13.812;2023-02-03T07:40:49;3.95;;;3.58;;
21729;SDS011;11027;51.030;13.812;2023-02-03T07:43:15;4.57;;;3.25;;
21729;SDS011;11027;51.030;13.812;2023-02-03T07:45:40;5.93;;;3.00;;
21729;SDS011;11027;51.030;13.812;2023-02-03T07:48:06;3.47;;;2.92;;
21729;SDS011;11027;51.030;13.812;2023-02-03T07:50:31;4.00;;;2.70;;
21729;SDS011;11027;51.030;13.812;2023-02-03T07:52:59;3.35;;;2.60;;
21729;SDS011;11027;51.030;13.812;2023-02-03T07:55:25;2.90;;;2.70;;
21729;SDS011;11027;51.030;13.812;2023-02-03T07:57:54;5.07;;;3.33;;
21729;SDS011;11027;51.030;13.812;2023-02-03T08:00:23;4.95;;;2.67;;
21729;SDS011;11027;51.030;13.812;2023-02-03T08:02:49;4.15;;;2.97;;
21729;SDS011;11027;51.030;13.812;2023-02-03T08:05:14;3.58;;;2.40;;
21729;SDS011;11027;51.030;13.812;2023-02-03T08:07:41;3.08;;;2.70;;
21729;SDS011;11027;51.030;13.812;2023-02-03T08:10:07;3.65;;;2.30;;
21729;SDS011;11027;51.030;13.812;2023-02-03T08:12:34;4.57;;;2.47;;
21729;SDS011;11027;51.030;13.812;2023-02-03T08:15:00;2.50;;;2.30;;
21729;SDS011;11027;51.030;13.812;2023-02-03T08:17:25;3.45;;;2.50;;
21729;SDS011;11027;51.030;13.812;2023-02-03T08:19:50;2.85;;;2.35;;
21729;SDS011;11027;51.030;13.812;2023-02-03T08:22:16;3.25;;;2.40;;
21729;SDS011;11027;51.030;13.812;2023-02-03T08:24:42;2.35;;;1.90;;
21729;SDS011;11027;51.030;13.812;2023-02-03T08:27:10;2.20;;;1.92;;
21729;SDS011;11027;51.030;13.812;2023-02-03T08:29:36;3.42;;;2.05;;
21729;SDS011;11027;51.030;13.812;2023-02-03T08:32:02;2.42;;;2.00;;
21729;SDS011;11027;51.030;13.812;2023-02-03T08:34:27;3.88;;;2.17;;
21729;SDS011;11027;51.030;13.812;2023-02-03T08:36:52;2.42;;;2.05;;
21729;SDS011;11027;51.030;13.812;2023-02-03T08:39:17;3.30;;;2.42;;
21729;SDS011;11027;51.030;13.812;2023-02-03T08:41:42;3.00;;;2.05;;
21729;SDS011;11027;51.030;13.812;2023-02-03T08:44:08;2.58;;;2.00;;
21729;SDS011;11027;51.030;13.812;2023-02-03T08:46:33;2.97;;;1.90;;
21729;SDS011;11027;51.030;13.812;2023-02-03T08:49:00;2.80;;;1.88;;
21729;SDS011;11027;51.030;13.812;2023-02-03T08:51:26;2.55;;;2.15;;
21729;SDS011;11027;51.030;13.812;2023-02-03T08:53:52;2.42;;;1.90;;
21729;SDS011;11027;51.030;13.812;2023-02-03T08:56:17;2.85;;;2.25;;
21729;SDS011;11027;51.030;13.812;2023-02-03T08:58:43;2.28;;;1.92;;
21729;SDS011;11027;51.030;13.812;2023-02-03T09:01:09;2.78;;;2.25;;
21729;SDS011;11027;51.030;13.812;2023-02-03T09:03:37;3.30;;;2.00;;
21729;SDS011;11027;51.030;13.812;2023-02-03T09:06:03;3.15;;;1.90;;
21729;SDS011;11027;51.030;13.812;2023-02-03T09:08:29;4.03;;;2.10;;
21729;SDS011;11027;51.030;13.812;2023-02-03T09:10:54;2.40;;;1.90;;
21729;SDS011;11027;51.030;13.812;2023-02-03T09:13:19;3.10;;;2.13;;
21729;SDS011;11027;51.030;13.812;2023-02-03T09:15:45;3.55;;;2.22;;
21729;SDS011;11027;51.030;13.812;2023-02-03T09:18:10;3.30;;;1.92;;
21729;SDS011;11027;51.030;13.812;2023-02-03T09:20:35;2.95;;;2.00;;
21729;SDS011;11027;51.030;13.812;2023-02-03T09:23:00;3.72;;;2.40;;
21729;SDS011;11027;51.030;13.812;2023-02-03T09:25:26;6.97;;;2.45;;
21729;SDS011;11027;51.030;13.812;2023-02-03T09:27:51;6.25;;;2.92;;
21729;SDS011;11027;51.030;13.812;2023-02-03T09:30:16;6.57;;;2.45;;
21729;SDS011;11027;51.030;13.812;2023-02-03T09:32:41;5.13;;;3.13;;
21729;SDS011;11027;51.030;13.812;2023-02-03T09:35:07;9.05;;;2.70;;
21729;SDS011;11027;51.030;13.812;2023-02-03T09:37:32;6.18;;;3.00;;
21729;SDS011;11027;51.030;13.812;2023-02-03T09:39:57;3.00;;;2.38;;
21729;SDS011;11027;51.030;13.812;2023-02-03T09:42:35;2.97;;;2.50;;
21729;SDS011;11027;51.030;13.812;2023-02-03T09:47:50;3.83;;;2.80;;
21729;SDS011;11027;51.030;13.812;2023-02-03T09:50:20;4.63;;;2.80;;
21729;SDS011;11027;51.030;13.812;2023-02-03T09:52:48;4.43;;;2.88;;
21729;SDS011;11027;51.030;13.812;2023-02-03T09:57:50;4.05;;;2.70;;
21729;SDS011;11027;51.030;13.812;2023-02-03T10:02:55;3.40;;;2.85;;
21729;SDS011;11027;51.030;13.812;2023-02-03T10:08:35;6.72;;;3.15;;
21729;SDS011;11027;51.030;13.812;2023-02-03T10:11:39;6.57;;;3.15;;
21729;SDS011;11027;51.030;13.812;2023-02-03T10:14:42;3.90;;;2.72;;
21729;SDS011;11027;51.030;13.812;2023-02-03T10:17:29;4.47;;;2.88;;
21729;SDS011;11027;51.030;13.812;2023-02-03T10:20:05;5.22;;;2.88;;
21729;SDS011;11027;51.030;13.812;2023-02-03T10:22:47;4.88;;;2.70;;
21729;SDS011;11027;51.030;13.812;2023-02-03T10:25:40;4.60;;;2.72;;
21729;SDS011;11027;51.030;13.812;2023-02-03T10:28:18;4.18;;;2.72;;
21729;SDS011;11027;51.030;13.812;2023-02-03T10:30:49;9.93;;;3.10;;
21729;SDS011;11027;51.030;13.812;2023-02-03T10:38:56;4.53;;;2.58;;
21729;SDS011;11027;51.030;13.812;2023-02-03T10:41:27;3.78;;;2.17;;
21729;SDS011;11027;51.030;13.812;2023-02-03T10:43:55;3.78;;;2.63;;
21729;SDS011;11027;51.030;13.812;2023-02-03T10:46:28;5.57;;;2.58;;
21729;SDS011;11027;51.030;13.812;2023-02-03T10:48:55;3.42;;;2.30;;
21729;SDS011;11027;51.030;13.812;2023-02-03T10:53:46;3.80;;;2.40;;
21729;SDS011;11027;51.030;13.812;2023-02-03T10:56:13;3.60;;;2.30;;
21729;SDS011;11027;51.030;13.812;2023-02-03T10:58:46;4.95;;;2.70;;
21729;SDS011;11027;51.030;13.812;2023-02-03T11:01:18;4.15;;;2.80;;
21729;SDS011;11027;51.030;13.812;2023-02-03T11:04:01;3.17;;;2.22;;
21729;SDS011;11027;51.030;13.812;2023-02-03T11:06:28;4.13;;;2.42;;
21729;SDS011;11027;51.030;13.812;2023-02-03T11:08:54;4.35;;;2.38;;
21729;SDS011;11027;51.030;13.812;2023-02-03T11:14:09;5.70;;;2.28;;
21729;SDS011;11027;51.030;13.812;2023-02-03T11:16:40;5.40;;;2.45;;
21729;SDS011;11027;51.030;13.812;2023-02-03T11:19:26;3.90;;;2.20;;
21729;SDS011;11027;51.030;13.812;2023-02-03T11:21:51;5.90;;;2.35;;
21729;SDS011;11027;51.030;13.812;2023-02-03T11:24:27;2.83;;;2.08;;
21729;SDS011;11027;51.030;13.812;2023-02-03T11:26:56;3.72;;;2.20;;
21729;SDS011;11027;51.030;13.812;2023-02-03T11:29:27;4.63;;;2.20;;
21729;SDS011;11027;51.030;13.812;2023-02-03T11:31:55;3.65;;;1.83;;
21729;SDS011;11027;51.030;13.812;2023-02-03T11:34:28;6.20;;;2.15;;
21729;SDS011;11027;51.030;13.812;2023-02-03T11:36:57;4.80;;;2.10;;
21729;SDS011;11027;51.030;13.812;2023-02-03T11:39:54;2.53;;;1.90;;
21729;SDS011;11027;51.030;13.812;2023-02-03T11:42:32;5.22;;;2.05;;
21729;SDS011;11027;51.030;13.812;2023-02-03T11:47:54;4.30;;;2.30;;
21729;SDS011;11027;51.030;13.812;2023-02-03T11:50:29;5.00;;;1.65;;
21729;SDS011;11027;51.030;13.812;2023-02-03T11:55:39;3.67;;;1.65;;
21729;SDS011;11027;51.030;13.812;2023-02-03T12:06:54;2.20;;;1.20;;
21729;SDS011;11027;51.030;13.812;2023-02-03T12:09:41;1.63;;;1.20;;
21729;SDS011;11027;51.030;13.812;2023-02-03T12:12:33;2.40;;;1.08;;
21729;SDS011;11027;51.030;13.812;2023-02-03T12:21:22;2.13;;;1.10;;
21729;SDS011;11027;51.030;13.812;2023-02-03T12:26:38;0.80;;;0.80;;
21729;SDS011;11027;51.030;13.812;2023-02-03T12:32:08;1.15;;;0.80;;
21729;SDS011;11027;51.030;13.812;2023-02-03T12:34:39;1.83;;;0.70;;
21729;SDS011;11027;51.030;13.812;2023-02-03T12:37:21;1.77;;;0.60;;
21729;SDS011;11027;51.030;13.812;2023-02-03T12:39:54;1.38;;;0.52;;
21729;SDS011;11027;51.030;13.812;2023-02-03T12:47:43;0.93;;;0.63;;
21729;SDS011;11027;51.030;13.812;2023-02-03T12:50:13;1.35;;;0.90;;
21729;SDS011;11027;51.030;13.812;2023-02-03T12:52:44;1.00;;;0.70;;
21729;SDS011;11027;51.030;13.812;2023-02-03T12:57:48;1.67;;;0.70;;
21729;SDS011;11027;51.030;13.812;2023-02-03T13:00:22;2.05;;;0.80;;
21729;SDS011;11027;51.030;13.812;2023-02-03T13:02:59;2.38;;;0.98;;
21729;SDS011;11027;51.030;13.812;2023-02-03T13:08:08;4.85;;;1.10;;
21729;SDS011;11027;51.030;13.812;2023-02-03T13:10:44;2.00;;;1.00;;
21729;SDS011;11027;51.030;13.812;2023-02-03T13:13:14;3.58;;;1.10;;
21729;SDS011;11027;51.030;13.812;2023-02-03T13:15:47;3.45;;;1.30;;
21729;SDS011;11027;51.030;13.812;2023-02-03T13:18:26;4.03;;;1.30;;
21729;SDS011;11027;51.030;13.812;2023-02-03T13:20:57;5.15;;;1.50;;
21729;SDS011;11027;51.030;13.812;2023-02-03T13:23:23;5.90;;;1.17;;
21729;SDS011;11027;51.030;13.812;2023-02-03T13:25:59;7.28;;;1.08;;
21729;SDS011;11027;51.030;13.812;2023-02-03T13:34:42;6.30;;;1.30;;
21729;SDS011;11027;51.030;13.812;2023-02-03T13:37:37;5.80;;;1.25;;
21729;SDS011;11027;51.030;13.812;2023-02-03T13:40:27;10.55;;;1.70;;
21729;SDS011;11027;51.030;13.812;2023-02-03T13:43:10;6.82;;;1.45;;
21729;SDS011;11027;51.030;13.812;2023-02-03T13:45:52;6.75;;;1.45;;
21729;SDS011;11027;51.030;13.812;2023-02-03T13:48:21;6.85;;;2.08;;
21729;SDS011;11027;51.030;13.812;2023-02-03T13:50:50;7.25;;;1.73;;
21729;SDS011;11027;51.030;13.812;2023-02-03T13:53:37;12.77;;;2.25;;
21729;SDS011;11027;51.030;13.812;2023-02-03T13:56:07;10.77;;;2.25;;
21729;SDS011;11027;51.030;13.812;2023-02-03T13:58:57;10.88;;;2.38;;
21729;SDS011;11027;51.030;13.812;2023-02-03T14:01:32;10.00;;;1.88;;
21729;SDS011;11027;51.030;13.812;2023-02-03T14:04:00;8.57;;;2.25;;
21729;SDS011;11027;51.030;13.812;2023-02-03T14:14:40;9.25;;;2.20;;
21729;SDS011;11027;51.030;13.812;2023-02-03T14:19:58;10.52;;;2.50;;
21729;SDS011;11027;51.030;13.812;2023-02-03T14:22:23;12.93;;;2.60;;
21729;SDS011;11027;51.030;13.812;2023-02-03T14:24:51;14.40;;;2.13;;
21729;SDS011;11027;51.030;13.812;2023-02-03T14:27:22;9.10;;;2.25;;
21729;SDS011;11027;51.030;13.812;2023-02-03T14:30:06;10.70;;;2.35;;
21729;SDS011;11027;51.030;13.812;2023-02-03T14:32:51;13.30;;;3.03;;
21729;SDS011;11027;51.030;13.812;2023-02-03T14:35:20;16.42;;;2.63;;
21729;SDS011;11027;51.030;13.812;2023-02-03T14:37:50;14.45;;;2.63;;
21729;SDS011;11027;51.030;13.812;2023-02-03T14:40:26;13.98;;;2.67;;
21729;SDS011;11027;51.030;13.812;2023-02-03T14:48:28;14.65;;;3.03;;
21729;SDS011;11027;51.030;13.812;2023-02-03T14:51:13;17.67;;;3.05;;
21729;SDS011;11027;51.030;13.812;2023-02-03T14:56:43;12.18;;;2.47;;
21729;SDS011;11027;51.030;13.812;2023-02-03T14:59:40;15.90;;;3.15;;
21729;SDS011;11027;51.030;13.812;2023-02-03T15:02:13;11.23;;;2.77;;
21729;SDS011;11027;51.030;13.812;2023-02-03T15:04:44;12.00;;;2.90;;
21729;SDS011;11027;51.030;13.812;2023-02-03T15:09:58;16.55;;;2.55;;
21729;SDS011;11027;51.030;13.812;2023-02-03T15:12:24;12.82;;;2.97;;
21729;SDS011;11027;51.030;13.812;2023-02-03T15:14:51;15.05;;;2.53;;
21729;SDS011;11027;51.030;13.812;2023-02-03T15:17:24;14.25;;;2.83;;
21729;SDS011;11027;51.030;13.812;2023-02-03T15:19:52;13.40;;;2.88;;
21729;SDS011;11027;51.030;13.812;2023-02-03T15:22:18;13.75;;;2.50;;
21729;SDS011;11027;51.030;13.812;2023-02-03T15:24:47;12.38;;;3.25;;
21729;SDS011;11027;51.030;13.812;2023-02-03T15:27:23;12.10;;;3.13;;
21729;SDS011;11027;51.030;13.812;2023-02-03T15:29:50;15.27;;;3.13;;
21729;SDS011;11027;51.030;13.812;2023-02-03T15:32:18;17.90;;;2.97;;
21729;SDS011;11027;51.030;13.812;2023-02-03T15:34:50;13.95;;;3.10;;
21729;SDS011;11027;51.030;13.812;2023-02-03T15:37:22;12.88;;;2.80;;
21729;SDS011;11027;51.030;13.812;2023-02-03T15:39:58;13.63;;;2.85;;
21729;SDS011;11027;51.030;13.812;2023-02-03T15:45:43;14.98;;;3.35;;
21729;SDS011;11027;51.030;13.812;2023-02-03T15:48:26;17.23;;;3.27;;
21729;SDS011;11027;51.030;13.812;2023-02-03T15:51:11;14.27;;;3.15;;
21729;SDS011;11027;51.030;13.812;2023-02-03T15:53:46;20.30;;;3.72;;
21729;SDS011;11027;51.030;13.812;2023-02-03T15:56:35;14.45;;;2.97;;
21729;SDS011;11027;51.030;13.812;2023-02-03T15:59:05;16.38;;;2.95;;
21729;SDS011;11027;51.030;13.812;2023-02-03T16:01:46;17.75;;;3.10;;
21729;SDS011;11027;51.030;13.812;2023-02-03T16:04:11;15.10;;;3.25;;
21729;SDS011;11027;51.030;13.812;2023-02-03T16:06:38;20.98;;;3.90;;
21729;SDS011;11027;51.030;13.812;2023-02-03T16:09:22;17.50;;;3.40;;
21729;SDS011;11027;51.030;13.812;2023-02-03T16:12:01;18.45;;;3.53;;
21729;SDS011;11027;51.030;13.812;2023-02-03T16:14:30;21.17;;;4.05;;
21729;SDS011;11027;51.030;13.812;2023-02-03T16:17:00;15.70;;;3.70;;
21729;SDS011;11027;51.030;13.812;2023-02-03T16:19:26;20.75;;;4.25;;
21729;SDS011;11027;51.030;13.812;2023-02-03T16:21:54;18.50;;;3.78;;
21729;SDS011;11027;51.030;13.812;2023-02-03T16:24:33;22.30;;;3.95;;
21729;SDS011;11027;51.030;13.812;2023-02-03T16:29:48;19.90;;;3.58;;
21729;SDS011;11027;51.030;13.812;2023-02-03T16:32:32;15.75;;;3.33;;
21729;SDS011;11027;51.030;13.812;2023-02-03T16:35:16;16.92;;;2.83;;